sensor_id;sensor_type;location;lat;lon;timestamp;P1;durP1;ratioP1;P2;durP2;ratioP2
14276;SDS011;7222;57.346;12.150;2023-03-17T00:00:15;2.17;;;1.20;;
14276;SDS011;7222;57.346;12.150;2023-03-17T00:02:43;1.50;;;1.10;;
14276;SDS011;7222;57.346;12.150;2023-03-17T00:05:18;2.20;;;0.90;;
14276;SDS011;7222;57.346;12.150;2023-03-17T00:07:47;3.00;;;1.20;;
14276;SDS011;7222;57.346;12.150;2023-03-17T00:10:17;1.93;;;1.13;;
14276;SDS011;7222;57.346;12.150;2023-03-17T00:12:47;2.17;;;0.97;;
14276;SDS011;7222;57.346;12.150;2023-03-17T00:15:15;2.77;;;1.00;;
14276;SDS011;7222;57.346;12.150;2023-03-17T00:17:43;3.43;;;1.50;;
14276;SDS011;7222;57.346;12.150;2023-03-17T00:22:56;1.23;;;1.00;;
14276;SDS011;7222;57.346;12.150;2023-03-17T00:25:25;4.67;;;1.30;;
14276;SDS011;7222;57.346;12.150;2023-03-17T00:27:53;2.03;;;1.13;;
14276;SDS011;7222;57.346;12.150;2023-03-17T00:30:22;2.27;;;1.40;;
14276;SDS011;7222;57.346;12.150;2023-03-17T00:32:51;1.07;;;0.77;;
14276;SDS011;7222;57.346;12.150;2023-03-17T00:35:22;3.43;;;1.63;;
14276;SDS011;7222;57.346;12.150;2023-03-17T00:37:53;1.80;;;1.30;;
14276;SDS011;7222;57.346;12.150;2023-03-17T00:40:21;1.50;;;0.80;;
14276;SDS011;7222;57.346;12.150;2023-03-17T00:42:50;1.63;;;1.13;;
14276;SDS011;7222;57.346;12.150;2023-03-17T00:45:18;3.13;;;1.43;;
14276;SDS011;7222;57.346;12.150;2023-03-17T00:47:47;3.30;;;1.27;;
14276;SDS011;7222;57.346;12.150;2023-03-17T00:50:16;2.47;;;1.17;;
14276;SDS011;7222;57.346;12.150;2023-03-17T00:52:46;1.27;;;1.00;;
14276;SDS011;7222;57.346;12.150;2023-03-17T00:55:16;1.97;;;1.23;;
14276;SDS011;7222;57.346;12.150;2023-03-17T00:57:45;1.70;;;0.93;;
14276;SDS011;7222;57.346;12.150;2023-03-17T01:00:18;1.23;;;1.03;;
14276;SDS011;7222;57.346;12.150;2023-03-17T01:02:50;2.13;;;1.60;;
14276;SDS011;7222;57.346;12.150;2023-03-17T01:05:18;1.53;;;1.00;;
14276;SDS011;7222;57.346;12.150;2023-03-17T01:07:46;2.67;;;1.13;;
14276;SDS011;7222;57.346;12.150;2023-03-17T01:10:19;1.30;;;0.77;;
14276;SDS011;7222;57.346;12.150;2023-03-17T01:12:48;2.20;;;1.30;;
14276;SDS011;7222;57.346;12.150;2023-03-17T01:15:16;4.83;;;1.57;;
14276;SDS011;7222;57.346;12.150;2023-03-17T01:17:44;1.77;;;1.23;;
14276;SDS011;7222;57.346;12.150;2023-03-17T01:20:14;2.43;;;1.10;;
14276;SDS011;7222;57.346;12.150;2023-03-17T01:22:43;2.00;;;1.23;;
14276;SDS011;7222;57.346;12.150;2023-03-17T01:25:11;2.27;;;1.30;;
14276;SDS011;7222;57.346;12.150;2023-03-17T01:27:40;1.77;;;1.00;;
14276;SDS011;7222;57.346;12.150;2023-03-17T01:30:08;3.17;;;1.63;;
14276;SDS011;7222;57.346;12.150;2023-03-17T01:32:47;1.60;;;1.43;;
14276;SDS011;7222;57.346;12.150;2023-03-17T01:35:15;4.23;;;1.10;;
14276;SDS011;7222;57.346;12.150;2023-03-17T01:37:42;1.37;;;1.07;;
14276;SDS011;7222;57.346;12.150;2023-03-17T01:40:12;2.70;;;1.80;;
14276;SDS011;7222;57.346;12.150;2023-03-17T01:42:43;2.57;;;1.37;;
14276;SDS011;7222;57.346;12.150;2023-03-17T01:48:17;4.13;;;1.80;;
14276;SDS011;7222;57.346;12.150;2023-03-17T01:50:45;2.70;;;1.87;;
14276;SDS011;7222;57.346;12.150;2023-03-17T01:53:13;3.83;;;1.87;;
14276;SDS011;7222;57.346;12.150;2023-03-17T01:55:41;3.90;;;1.87;;
14276;SDS011;7222;57.346;12.150;2023-03-17T01:58:12;4.27;;;2.00;;
14276;SDS011;7222;57.346;12.150;2023-03-17T02:00:41;2.33;;;1.77;;
14276;SDS011;7222;57.346;12.150;2023-03-17T02:03:10;3.93;;;2.13;;
14276;SDS011;7222;57.346;12.150;2023-03-17T02:05:37;4.27;;;1.87;;
14276;SDS011;7222;57.346;12.150;2023-03-17T02:08:07;4.40;;;2.07;;
14276;SDS011;7222;57.346;12.150;2023-03-17T02:10:35;4.10;;;2.10;;
14276;SDS011;7222;57.346;12.150;2023-03-17T02:13:02;6.77;;;1.83;;
14276;SDS011;7222;57.346;12.150;2023-03-17T02:15:42;2.40;;;1.40;;
14276;SDS011;7222;57.346;12.150;2023-03-17T02:18:10;4.07;;;1.63;;
14276;SDS011;7222;57.346;12.150;2023-03-17T02:23:45;4.27;;;2.10;;
14276;SDS011;7222;57.346;12.150;2023-03-17T02:26:12;5.77;;;2.30;;
14276;SDS011;7222;57.346;12.150;2023-03-17T02:28:39;4.07;;;1.93;;
14276;SDS011;7222;57.346;12.150;2023-03-17T02:31:10;2.43;;;1.30;;
14276;SDS011;7222;57.346;12.150;2023-03-17T02:33:37;2.83;;;1.40;;
14276;SDS011;7222;57.346;12.150;2023-03-17T02:36:04;3.57;;;1.70;;
14276;SDS011;7222;57.346;12.150;2023-03-17T02:38:33;3.20;;;1.70;;
14276;SDS011;7222;57.346;12.150;2023-03-17T02:41:02;2.30;;;1.17;;
14276;SDS011;7222;57.346;12.150;2023-03-17T02:43:30;5.03;;;2.37;;
14276;SDS011;7222;57.346;12.150;2023-03-17T02:45:57;2.90;;;0.90;;
14276;SDS011;7222;57.346;12.150;2023-03-17T02:48:24;1.80;;;1.40;;
14276;SDS011;7222;57.346;12.150;2023-03-17T02:50:51;2.60;;;1.60;;
14276;SDS011;7222;57.346;12.150;2023-03-17T02:53:18;3.23;;;1.60;;
14276;SDS011;7222;57.346;12.150;2023-03-17T02:55:45;2.47;;;1.03;;
14276;SDS011;7222;57.346;12.150;2023-03-17T02:58:13;1.37;;;1.10;;
14276;SDS011;7222;57.346;12.150;2023-03-17T03:00:40;2.43;;;1.60;;
14276;SDS011;7222;57.346;12.150;2023-03-17T03:03:07;4.23;;;1.80;;
14276;SDS011;7222;57.346;12.150;2023-03-17T03:05:34;3.50;;;1.60;;
14276;SDS011;7222;57.346;12.150;2023-03-17T03:08:01;3.50;;;1.70;;
14276;SDS011;7222;57.346;12.150;2023-03-17T03:10:28;1.17;;;0.83;;
14276;SDS011;7222;57.346;12.150;2023-03-17T03:12:55;5.07;;;1.23;;
14276;SDS011;7222;57.346;12.150;2023-03-17T03:15:23;5.07;;;1.40;;
14276;SDS011;7222;57.346;12.150;2023-03-17T03:17:50;1.90;;;1.13;;
14276;SDS011;7222;57.346;12.150;2023-03-17T03:20:17;2.00;;;1.30;;
14276;SDS011;7222;57.346;12.150;2023-03-17T03:22:44;2.67;;;1.43;;
14276;SDS011;7222;57.346;12.150;2023-03-17T03:25:11;2.93;;;1.60;;
14276;SDS011;7222;57.346;12.150;2023-03-17T03:27:38;2.93;;;1.60;;
14276;SDS011;7222;57.346;12.150;2023-03-17T03:30:06;2.60;;;1.60;;
14276;SDS011;7222;57.346;12.150;2023-03-17T03:32:35;3.73;;;1.30;;
14276;SDS011;7222;57.346;12.150;2023-03-17T03:35:02;4.60;;;1.77;;
14276;SDS011;7222;57.346;12.150;2023-03-17T03:37:30;3.67;;;1.40;;
14276;SDS011;7222;57.346;12.150;2023-03-17T03:39:57;1.47;;;0.90;;
14276;SDS011;7222;57.346;12.150;2023-03-17T03:42:24;1.67;;;1.23;;
14276;SDS011;7222;57.346;12.150;2023-03-17T03:44:51;3.97;;;1.77;;
14276;SDS011;7222;57.346;12.150;2023-03-17T03:47:17;4.50;;;1.50;;
14276;SDS011;7222;57.346;12.150;2023-03-17T03:49:46;1.40;;;1.10;;
14276;SDS011;7222;57.346;12.150;2023-03-17T03:52:12;3.50;;;1.60;;
14276;SDS011;7222;57.346;12.150;2023-03-17T03:54:39;2.70;;;1.40;;
14276;SDS011;7222;57.346;12.150;2023-03-17T03:57:06;2.60;;;1.30;;
14276;SDS011;7222;57.346;12.150;2023-03-17T03:59:33;2.50;;;1.80;;
14276;SDS011;7222;57.346;12.150;2023-03-17T04:02:00;3.53;;;1.70;;
14276;SDS011;7222;57.346;12.150;2023-03-17T04:04:27;2.83;;;2.10;;
14276;SDS011;7222;57.346;12.150;2023-03-17T04:06:56;4.57;;;1.87;;
14276;SDS011;7222;57.346;12.150;2023-03-17T04:09:23;2.93;;;1.83;;
14276;SDS011;7222;57.346;12.150;2023-03-17T04:11:50;4.00;;;1.70;;
14276;SDS011;7222;57.346;12.150;2023-03-17T04:14:17;2.70;;;2.20;;
14276;SDS011;7222;57.346;12.150;2023-03-17T04:16:43;3.87;;;1.37;;
14276;SDS011;7222;57.346;12.150;2023-03-17T04:19:10;3.93;;;1.63;;
14276;SDS011;7222;57.346;12.150;2023-03-17T04:21:37;2.33;;;1.70;;
14276;SDS011;7222;57.346;12.150;2023-03-17T04:24:06;3.83;;;2.03;;
14276;SDS011;7222;57.346;12.150;2023-03-17T04:26:33;7.00;;;1.50;;
14276;SDS011;7222;57.346;12.150;2023-03-17T04:29:01;4.70;;;2.67;;
14276;SDS011;7222;57.346;12.150;2023-03-17T04:31:27;4.97;;;2.63;;
14276;SDS011;7222;57.346;12.150;2023-03-17T04:33:54;4.47;;;2.20;;
14276;SDS011;7222;57.346;12.150;2023-03-17T04:36:22;3.23;;;2.57;;
14276;SDS011;7222;57.346;12.150;2023-03-17T04:38:49;3.73;;;2.63;;
14276;SDS011;7222;57.346;12.150;2023-03-17T04:41:18;3.83;;;2.63;;
14276;SDS011;7222;57.346;12.150;2023-03-17T04:43:45;5.27;;;2.70;;
14276;SDS011;7222;57.346;12.150;2023-03-17T04:46:12;3.03;;;2.07;;
14276;SDS011;7222;57.346;12.150;2023-03-17T04:48:40;4.97;;;2.47;;
14276;SDS011;7222;57.346;12.150;2023-03-17T04:51:07;3.50;;;1.87;;
14276;SDS011;7222;57.346;12.150;2023-03-17T04:53:33;2.77;;;2.00;;
14276;SDS011;7222;57.346;12.150;2023-03-17T04:56:00;2.37;;;2.10;;
14276;SDS011;7222;57.346;12.150;2023-03-17T04:58:29;2.70;;;1.87;;
14276;SDS011;7222;57.346;12.150;2023-03-17T05:00:56;5.27;;;2.13;;
14276;SDS011;7222;57.346;12.150;2023-03-17T05:03:23;3.93;;;2.60;;
14276;SDS011;7222;57.346;12.150;2023-03-17T05:05:51;5.53;;;2.60;;
14276;SDS011;7222;57.346;12.150;2023-03-17T05:08:18;2.90;;;2.37;;
14276;SDS011;7222;57.346;12.150;2023-03-17T05:10:45;5.90;;;2.23;;
14276;SDS011;7222;57.346;12.150;2023-03-17T05:13:12;3.33;;;2.03;;
14276;SDS011;7222;57.346;12.150;2023-03-17T05:15:42;3.67;;;2.07;;
14276;SDS011;7222;57.346;12.150;2023-03-17T05:18:12;4.23;;;2.17;;
14276;SDS011;7222;57.346;12.150;2023-03-17T05:20:39;4.60;;;2.70;;
14276;SDS011;7222;57.346;12.150;2023-03-17T05:23:06;3.87;;;2.37;;
14276;SDS011;7222;57.346;12.150;2023-03-17T05:25:33;3.00;;;1.70;;
14276;SDS011;7222;57.346;12.150;2023-03-17T05:28:00;4.40;;;2.47;;
14276;SDS011;7222;57.346;12.150;2023-03-17T05:30:28;3.67;;;2.60;;
14276;SDS011;7222;57.346;12.150;2023-03-17T05:32:57;4.43;;;2.43;;
14276;SDS011;7222;57.346;12.150;2023-03-17T05:35:24;5.40;;;2.53;;
14276;SDS011;7222;57.346;12.150;2023-03-17T05:37:51;5.33;;;2.30;;
14276;SDS011;7222;57.346;12.150;2023-03-17T05:40:19;4.73;;;2.00;;
14276;SDS011;7222;57.346;12.150;2023-03-17T05:42:47;5.20;;;2.70;;
14276;SDS011;7222;57.346;12.150;2023-03-17T05:45:15;5.07;;;2.80;;
14276;SDS011;7222;57.346;12.150;2023-03-17T05:47:42;3.53;;;1.63;;
14276;SDS011;7222;57.346;12.150;2023-03-17T05:50:11;4.73;;;2.77;;
14276;SDS011;7222;57.346;12.150;2023-03-17T05:52:39;4.53;;;3.10;;
14276;SDS011;7222;57.346;12.150;2023-03-17T05:55:06;4.63;;;2.57;;
14276;SDS011;7222;57.346;12.150;2023-03-17T05:57:34;5.50;;;3.30;;
14276;SDS011;7222;57.346;12.150;2023-03-17T06:00:00;6.03;;;2.97;;
14276;SDS011;7222;57.346;12.150;2023-03-17T06:02:29;5.10;;;3.00;;
14276;SDS011;7222;57.346;12.150;2023-03-17T06:04:56;3.77;;;2.70;;
14276;SDS011;7222;57.346;12.150;2023-03-17T06:07:24;3.53;;;2.53;;
14276;SDS011;7222;57.346;12.150;2023-03-17T06:09:51;5.43;;;3.33;;
14276;SDS011;7222;57.346;12.150;2023-03-17T06:12:18;3.00;;;2.60;;
14276;SDS011;7222;57.346;12.150;2023-03-17T06:14:45;4.73;;;2.97;;
14276;SDS011;7222;57.346;12.150;2023-03-17T06:17:12;6.30;;;3.23;;
14276;SDS011;7222;57.346;12.150;2023-03-17T06:19:39;6.03;;;3.77;;
14276;SDS011;7222;57.346;12.150;2023-03-17T06:22:06;4.90;;;3.00;;
14276;SDS011;7222;57.346;12.150;2023-03-17T06:24:35;3.93;;;3.13;;
14276;SDS011;7222;57.346;12.150;2023-03-17T06:27:02;5.57;;;3.80;;
14276;SDS011;7222;57.346;12.150;2023-03-17T06:29:29;3.57;;;2.63;;
14276;SDS011;7222;57.346;12.150;2023-03-17T06:31:58;5.70;;;3.60;;
14276;SDS011;7222;57.346;12.150;2023-03-17T06:34:25;6.20;;;3.30;;
14276;SDS011;7222;57.346;12.150;2023-03-17T06:36:52;5.03;;;3.73;;
14276;SDS011;7222;57.346;12.150;2023-03-17T06:39:19;5.17;;;3.87;;
14276;SDS011;7222;57.346;12.150;2023-03-17T06:41:48;5.97;;;3.60;;
14276;SDS011;7222;57.346;12.150;2023-03-17T06:44:15;7.33;;;3.13;;
14276;SDS011;7222;57.346;12.150;2023-03-17T06:46:42;4.53;;;3.47;;
14276;SDS011;7222;57.346;12.150;2023-03-17T06:49:09;7.23;;;4.27;;
14276;SDS011;7222;57.346;12.150;2023-03-17T06:51:37;5.30;;;3.53;;
14276;SDS011;7222;57.346;12.150;2023-03-17T06:54:04;8.00;;;3.13;;
14276;SDS011;7222;57.346;12.150;2023-03-17T06:56:31;6.83;;;4.03;;
14276;SDS011;7222;57.346;12.150;2023-03-17T06:59:00;6.03;;;3.10;;
14276;SDS011;7222;57.346;12.150;2023-03-17T07:01:27;6.83;;;4.47;;
14276;SDS011;7222;57.346;12.150;2023-03-17T07:03:54;6.00;;;4.00;;
14276;SDS011;7222;57.346;12.150;2023-03-17T07:06:21;6.03;;;4.03;;
14276;SDS011;7222;57.346;12.150;2023-03-17T07:08:48;5.47;;;3.90;;
14276;SDS011;7222;57.346;12.150;2023-03-17T07:11:16;5.10;;;3.70;;
14276;SDS011;7222;57.346;12.150;2023-03-17T07:13:43;8.03;;;3.87;;
14276;SDS011;7222;57.346;12.150;2023-03-17T07:16:11;7.63;;;4.33;;
14276;SDS011;7222;57.346;12.150;2023-03-17T07:18:39;9.80;;;5.03;;
14276;SDS011;7222;57.346;12.150;2023-03-17T07:21:06;6.87;;;4.37;;
14276;SDS011;7222;57.346;12.150;2023-03-17T07:23:33;6.70;;;4.07;;
14276;SDS011;7222;57.346;12.150;2023-03-17T07:26:00;5.43;;;3.37;;
14276;SDS011;7222;57.346;12.150;2023-03-17T07:28:28;4.20;;;3.60;;
14276;SDS011;7222;57.346;12.150;2023-03-17T07:30:55;6.00;;;3.97;;
14276;SDS011;7222;57.346;12.150;2023-03-17T07:33:24;6.53;;;4.27;;
14276;SDS011;7222;57.346;12.150;2023-03-17T07:35:51;7.23;;;3.70;;
14276;SDS011;7222;57.346;12.150;2023-03-17T07:38:18;8.63;;;4.23;;
14276;SDS011;7222;57.346;12.150;2023-03-17T07:40:46;7.83;;;4.93;;
14276;SDS011;7222;57.346;12.150;2023-03-17T07:43:13;4.97;;;4.07;;
14276;SDS011;7222;57.346;12.150;2023-03-17T07:45:41;5.33;;;4.70;;
14276;SDS011;7222;57.346;12.150;2023-03-17T07:48:08;7.27;;;4.23;;
14276;SDS011;7222;57.346;12.150;2023-03-17T07:50:37;7.27;;;5.00;;
14276;SDS011;7222;57.346;12.150;2023-03-17T07:53:04;5.73;;;4.77;;
14276;SDS011;7222;57.346;12.150;2023-03-17T07:55:31;3.83;;;3.00;;
14276;SDS011;7222;57.346;12.150;2023-03-17T07:57:58;7.00;;;3.80;;
14276;SDS011;7222;57.346;12.150;2023-03-17T08:00:25;8.20;;;4.93;;
14276;SDS011;7222;57.346;12.150;2023-03-17T08:02:53;6.23;;;4.40;;
14276;SDS011;7222;57.346;12.150;2023-03-17T08:05:20;7.33;;;5.30;;
14276;SDS011;7222;57.346;12.150;2023-03-17T08:07:49;9.43;;;4.90;;
14276;SDS011;7222;57.346;12.150;2023-03-17T08:10:16;6.87;;;4.77;;
14276;SDS011;7222;57.346;12.150;2023-03-17T08:12:44;8.37;;;4.80;;
14276;SDS011;7222;57.346;12.150;2023-03-17T08:15:17;5.53;;;3.93;;
14276;SDS011;7222;57.346;12.150;2023-03-17T08:17:44;8.80;;;4.83;;
14276;SDS011;7222;57.346;12.150;2023-03-17T08:20:12;7.67;;;5.20;;
14276;SDS011;7222;57.346;12.150;2023-03-17T08:22:39;7.43;;;4.93;;
14276;SDS011;7222;57.346;12.150;2023-03-17T08:25:07;8.83;;;5.63;;
14276;SDS011;7222;57.346;12.150;2023-03-17T08:27:35;8.13;;;5.57;;
14276;SDS011;7222;57.346;12.150;2023-03-17T08:30:02;7.00;;;4.30;;
14276;SDS011;7222;57.346;12.150;2023-03-17T08:32:30;6.93;;;5.77;;
14276;SDS011;7222;57.346;12.150;2023-03-17T08:34:57;7.00;;;4.37;;
14276;SDS011;7222;57.346;12.150;2023-03-17T08:37:24;7.10;;;4.40;;
14276;SDS011;7222;57.346;12.150;2023-03-17T08:39:51;7.10;;;5.10;;
14276;SDS011;7222;57.346;12.150;2023-03-17T08:42:20;7.63;;;5.43;;
14276;SDS011;7222;57.346;12.150;2023-03-17T08:44:47;8.40;;;5.00;;
14276;SDS011;7222;57.346;12.150;2023-03-17T08:47:14;7.63;;;4.77;;
14276;SDS011;7222;57.346;12.150;2023-03-17T08:49:41;5.80;;;5.20;;
14276;SDS011;7222;57.346;12.150;2023-03-17T08:52:08;5.30;;;4.10;;
14276;SDS011;7222;57.346;12.150;2023-03-17T08:54:35;8.80;;;5.00;;
14276;SDS011;7222;57.346;12.150;2023-03-17T08:57:02;9.83;;;4.93;;
14276;SDS011;7222;57.346;12.150;2023-03-17T08:59:30;6.63;;;5.20;;
14276;SDS011;7222;57.346;12.150;2023-03-17T09:01:57;6.10;;;4.60;;
14276;SDS011;7222;57.346;12.150;2023-03-17T09:04:24;11.10;;;5.90;;
14276;SDS011;7222;57.346;12.150;2023-03-17T09:06:52;7.47;;;4.83;;
14276;SDS011;7222;57.346;12.150;2023-03-17T09:09:20;8.53;;;6.37;;
14276;SDS011;7222;57.346;12.150;2023-03-17T09:11:47;6.83;;;4.73;;
14276;SDS011;7222;57.346;12.150;2023-03-17T09:14:14;8.57;;;6.67;;
14276;SDS011;7222;57.346;12.150;2023-03-17T09:16:42;11.13;;;7.23;;
14276;SDS011;7222;57.346;12.150;2023-03-17T09:19:12;7.67;;;5.63;;
14276;SDS011;7222;57.346;12.150;2023-03-17T09:21:40;8.93;;;5.57;;
14276;SDS011;7222;57.346;12.150;2023-03-17T09:24:07;7.33;;;5.70;;
14276;SDS011;7222;57.346;12.150;2023-03-17T09:26:35;10.13;;;6.03;;
14276;SDS011;7222;57.346;12.150;2023-03-17T09:29:02;8.77;;;5.73;;
14276;SDS011;7222;57.346;12.150;2023-03-17T09:31:29;9.03;;;6.63;;
14276;SDS011;7222;57.346;12.150;2023-03-17T09:33:58;8.13;;;6.97;;
14276;SDS011;7222;57.346;12.150;2023-03-17T09:36:25;7.33;;;5.07;;
14276;SDS011;7222;57.346;12.150;2023-03-17T09:38:52;7.70;;;5.67;;
14276;SDS011;7222;57.346;12.150;2023-03-17T09:41:22;10.23;;;5.07;;
14276;SDS011;7222;57.346;12.150;2023-03-17T09:44:15;6.33;;;5.00;;
14276;SDS011;7222;57.346;12.150;2023-03-17T09:46:52;8.10;;;7.00;;
14276;SDS011;7222;57.346;12.150;2023-03-17T09:49:34;8.50;;;5.60;;
14276;SDS011;7222;57.346;12.150;2023-03-17T09:52:07;11.17;;;6.63;;
14276;SDS011;7222;57.346;12.150;2023-03-17T09:54:38;10.07;;;6.30;;
14276;SDS011;7222;57.346;12.150;2023-03-17T09:57:09;8.27;;;5.83;;
14276;SDS011;7222;57.346;12.150;2023-03-17T09:59:41;8.47;;;6.23;;
14276;SDS011;7222;57.346;12.150;2023-03-17T10:02:13;10.33;;;5.73;;
14276;SDS011;7222;57.346;12.150;2023-03-17T10:04:45;5.90;;;3.87;;
14276;SDS011;7222;57.346;12.150;2023-03-17T10:07:13;7.93;;;5.43;;
14276;SDS011;7222;57.346;12.150;2023-03-17T10:09:46;10.60;;;7.17;;
14276;SDS011;7222;57.346;12.150;2023-03-17T10:12:23;8.53;;;6.50;;
14276;SDS011;7222;57.346;12.150;2023-03-17T10:15:00;6.73;;;5.50;;
14276;SDS011;7222;57.346;12.150;2023-03-17T10:17:31;9.30;;;5.57;;
14276;SDS011;7222;57.346;12.150;2023-03-17T10:20:03;11.73;;;7.03;;
14276;SDS011;7222;57.346;12.150;2023-03-17T10:22:36;10.10;;;5.73;;
14276;SDS011;7222;57.346;12.150;2023-03-17T10:25:09;7.93;;;6.37;;
14276;SDS011;7222;57.346;12.150;2023-03-17T10:27:41;9.60;;;7.00;;
14276;SDS011;7222;57.346;12.150;2023-03-17T10:30:14;10.20;;;6.73;;
14276;SDS011;7222;57.346;12.150;2023-03-17T10:32:43;9.70;;;6.50;;
14276;SDS011;7222;57.346;12.150;2023-03-17T10:35:12;10.67;;;5.63;;
14276;SDS011;7222;57.346;12.150;2023-03-17T10:37:40;9.80;;;7.27;;
14276;SDS011;7222;57.346;12.150;2023-03-17T10:40:18;8.93;;;5.57;;
14276;SDS011;7222;57.346;12.150;2023-03-17T10:42:47;9.80;;;6.80;;
14276;SDS011;7222;57.346;12.150;2023-03-17T10:45:20;6.50;;;5.03;;
14276;SDS011;7222;57.346;12.150;2023-03-17T10:47:50;9.07;;;6.13;;
14276;SDS011;7222;57.346;12.150;2023-03-17T10:50:20;9.33;;;5.93;;
14276;SDS011;7222;57.346;12.150;2023-03-17T10:52:51;8.60;;;6.30;;
14276;SDS011;7222;57.346;12.150;2023-03-17T10:55:21;8.73;;;5.67;;
14276;SDS011;7222;57.346;12.150;2023-03-17T10:57:56;8.30;;;5.50;;
14276;SDS011;7222;57.346;12.150;2023-03-17T11:00:27;8.30;;;7.10;;
14276;SDS011;7222;57.346;12.150;2023-03-17T11:03:01;5.30;;;4.20;;
14276;SDS011;7222;57.346;12.150;2023-03-17T11:05:36;7.63;;;5.33;;
14276;SDS011;7222;57.346;12.150;2023-03-17T11:08:07;7.90;;;5.10;;
14276;SDS011;7222;57.346;12.150;2023-03-17T11:10:37;8.50;;;5.40;;
14276;SDS011;7222;57.346;12.150;2023-03-17T11:13:05;7.97;;;6.80;;
14276;SDS011;7222;57.346;12.150;2023-03-17T11:15:34;11.67;;;6.23;;
14276;SDS011;7222;57.346;12.150;2023-03-17T11:18:06;8.30;;;5.70;;
14276;SDS011;7222;57.346;12.150;2023-03-17T11:20:43;9.13;;;6.80;;
14276;SDS011;7222;57.346;12.150;2023-03-17T11:23:19;9.17;;;6.43;;
14276;SDS011;7222;57.346;12.150;2023-03-17T11:26:06;9.63;;;6.73;;
14276;SDS011;7222;57.346;12.150;2023-03-17T11:28:45;10.13;;;6.80;;
14276;SDS011;7222;57.346;12.150;2023-03-17T11:31:17;7.13;;;5.90;;
14276;SDS011;7222;57.346;12.150;2023-03-17T11:33:53;9.30;;;6.53;;
14276;SDS011;7222;57.346;12.150;2023-03-17T11:36:35;8.90;;;5.50;;
14276;SDS011;7222;57.346;12.150;2023-03-17T11:39:10;8.17;;;6.90;;
14276;SDS011;7222;57.346;12.150;2023-03-17T11:41:47;7.93;;;6.53;;
14276;SDS011;7222;57.346;12.150;2023-03-17T11:47:46;9.43;;;6.50;;
14276;SDS011;7222;57.346;12.150;2023-03-17T11:50:25;9.07;;;6.27;;
14276;SDS011;7222;57.346;12.150;2023-03-17T11:53:06;9.63;;;6.27;;
14276;SDS011;7222;57.346;12.150;2023-03-17T11:55:44;9.70;;;6.93;;
14276;SDS011;7222;57.346;12.150;2023-03-17T11:58:15;8.43;;;6.40;;
14276;SDS011;7222;57.346;12.150;2023-03-17T12:00:50;7.87;;;6.20;;
14276;SDS011;7222;57.346;12.150;2023-03-17T12:03:24;9.57;;;6.60;;
14276;SDS011;7222;57.346;12.150;2023-03-17T12:05:59;8.63;;;7.73;;
14276;SDS011;7222;57.346;12.150;2023-03-17T12:08:34;9.77;;;6.97;;
14276;SDS011;7222;57.346;12.150;2023-03-17T12:11:07;10.27;;;6.37;;
14276;SDS011;7222;57.346;12.150;2023-03-17T12:13:39;10.07;;;6.50;;
14276;SDS011;7222;57.346;12.150;2023-03-17T12:16:12;10.00;;;5.50;;
14276;SDS011;7222;57.346;12.150;2023-03-17T12:18:45;6.03;;;4.00;;
14276;SDS011;7222;57.346;12.150;2023-03-17T12:21:19;9.57;;;6.37;;
14276;SDS011;7222;57.346;12.150;2023-03-17T12:23:53;9.90;;;7.07;;
14276;SDS011;7222;57.346;12.150;2023-03-17T12:26:27;9.20;;;6.00;;
14276;SDS011;7222;57.346;12.150;2023-03-17T12:29:01;8.77;;;6.10;;
14276;SDS011;7222;57.346;12.150;2023-03-17T12:31:34;10.50;;;6.77;;
14276;SDS011;7222;57.346;12.150;2023-03-17T12:34:04;6.67;;;5.37;;
14276;SDS011;7222;57.346;12.150;2023-03-17T12:36:35;8.73;;;5.80;;
14276;SDS011;7222;57.346;12.150;2023-03-17T12:39:06;9.30;;;6.67;;
14276;SDS011;7222;57.346;12.150;2023-03-17T12:44:32;8.43;;;6.80;;
14276;SDS011;7222;57.346;12.150;2023-03-17T12:47:21;9.53;;;7.23;;
14276;SDS011;7222;57.346;12.150;2023-03-17T12:53:10;9.43;;;7.83;;
14276;SDS011;7222;57.346;12.150;2023-03-17T12:55:52;8.73;;;7.33;;
14276;SDS011;7222;57.346;12.150;2023-03-17T12:58:28;9.83;;;6.27;;
14276;SDS011;7222;57.346;12.150;2023-03-17T13:01:02;8.43;;;7.50;;
14276;SDS011;7222;57.346;12.150;2023-03-17T13:03:33;12.13;;;7.03;;
14276;SDS011;7222;57.346;12.150;2023-03-17T13:06:03;9.80;;;7.87;;
14276;SDS011;7222;57.346;12.150;2023-03-17T13:08:33;9.93;;;8.00;;
14276;SDS011;7222;57.346;12.150;2023-03-17T13:11:16;9.30;;;8.13;;
14276;SDS011;7222;57.346;12.150;2023-03-17T13:13:46;10.87;;;6.13;;
14276;SDS011;7222;57.346;12.150;2023-03-17T13:16:27;11.23;;;7.30;;
14276;SDS011;7222;57.346;12.150;2023-03-17T13:19:13;10.53;;;7.70;;
14276;SDS011;7222;57.346;12.150;2023-03-17T13:21:43;9.27;;;7.70;;
14276;SDS011;7222;57.346;12.150;2023-03-17T13:27:12;11.00;;;7.37;;
14276;SDS011;7222;57.346;12.150;2023-03-17T13:30:41;10.53;;;7.10;;
14276;SDS011;7222;57.346;12.150;2023-03-17T13:33:15;11.00;;;7.10;;
14276;SDS011;7222;57.346;12.150;2023-03-17T13:35:51;6.70;;;5.23;;
14276;SDS011;7222;57.346;12.150;2023-03-17T13:38:45;11.83;;;6.83;;
14276;SDS011;7222;57.346;12.150;2023-03-17T13:44:34;10.47;;;7.33;;
14276;SDS011;7222;57.346;12.150;2023-03-17T13:47:15;8.50;;;5.37;;
14276;SDS011;7222;57.346;12.150;2023-03-17T13:49:52;9.30;;;6.73;;
14276;SDS011;7222;57.346;12.150;2023-03-17T13:52:24;9.40;;;5.43;;
14276;SDS011;7222;57.346;12.150;2023-03-17T13:54:58;11.27;;;6.40;;
14276;SDS011;7222;57.346;12.150;2023-03-17T13:57:33;9.93;;;8.13;;
14276;SDS011;7222;57.346;12.150;2023-03-17T14:00:03;11.20;;;7.90;;
14276;SDS011;7222;57.346;12.150;2023-03-17T14:02:48;8.63;;;6.37;;
14276;SDS011;7222;57.346;12.150;2023-03-17T14:05:27;10.73;;;7.80;;
14276;SDS011;7222;57.346;12.150;2023-03-17T14:07:57;11.10;;;7.93;;
14276;SDS011;7222;57.346;12.150;2023-03-17T14:10:27;8.93;;;6.67;;
14276;SDS011;7222;57.346;12.150;2023-03-17T14:12:57;16.67;;;9.03;;
14276;SDS011;7222;57.346;12.150;2023-03-17T14:15:31;10.30;;;7.17;;
14276;SDS011;7222;57.346;12.150;2023-03-17T14:18:07;11.70;;;8.27;;
14276;SDS011;7222;57.346;12.150;2023-03-17T14:20:40;10.10;;;6.87;;
14276;SDS011;7222;57.346;12.150;2023-03-17T14:23:17;10.20;;;8.07;;
14276;SDS011;7222;57.346;12.150;2023-03-17T14:25:45;11.63;;;7.77;;
14276;SDS011;7222;57.346;12.150;2023-03-17T14:28:15;9.87;;;7.50;;
14276;SDS011;7222;57.346;12.150;2023-03-17T14:30:50;12.23;;;7.93;;
14276;SDS011;7222;57.346;12.150;2023-03-17T14:33:20;12.23;;;8.47;;
14276;SDS011;7222;57.346;12.150;2023-03-17T14:35:48;10.13;;;7.60;;
14276;SDS011;7222;57.346;12.150;2023-03-17T14:38:17;8.70;;;7.07;;
14276;SDS011;7222;57.346;12.150;2023-03-17T14:40:46;10.43;;;8.20;;
14276;SDS011;7222;57.346;12.150;2023-03-17T14:43:14;11.30;;;8.23;;
14276;SDS011;7222;57.346;12.150;2023-03-17T14:45:46;12.10;;;8.30;;
14276;SDS011;7222;57.346;12.150;2023-03-17T14:48:18;9.77;;;7.87;;
14276;SDS011;7222;57.346;12.150;2023-03-17T14:50:48;13.30;;;9.03;;
14276;SDS011;7222;57.346;12.150;2023-03-17T14:53:18;13.80;;;8.83;;
14276;SDS011;7222;57.346;12.150;2023-03-17T14:55:49;10.90;;;7.70;;
14276;SDS011;7222;57.346;12.150;2023-03-17T14:58:17;13.43;;;9.57;;
14276;SDS011;7222;57.346;12.150;2023-03-17T15:00:52;11.20;;;8.93;;
14276;SDS011;7222;57.346;12.150;2023-03-17T15:03:24;13.20;;;9.40;;
14276;SDS011;7222;57.346;12.150;2023-03-17T15:06:02;12.53;;;9.50;;
14276;SDS011;7222;57.346;12.150;2023-03-17T15:08:38;22.73;;;11.67;;
14276;SDS011;7222;57.346;12.150;2023-03-17T15:11:13;19.10;;;11.57;;
14276;SDS011;7222;57.346;12.150;2023-03-17T15:13:46;12.50;;;8.17;;
14276;SDS011;7222;57.346;12.150;2023-03-17T15:16:15;14.43;;;9.63;;
14276;SDS011;7222;57.346;12.150;2023-03-17T15:18:47;16.53;;;10.70;;
14276;SDS011;7222;57.346;12.150;2023-03-17T15:21:26;13.77;;;9.87;;
14276;SDS011;7222;57.346;12.150;2023-03-17T15:23:54;14.10;;;8.90;;
14276;SDS011;7222;57.346;12.150;2023-03-17T15:26:23;11.83;;;10.13;;